Aeroporto :
LOGIN :

Iscrizione | Disclaimer

   EN    FR    IT 

 










Sommario :    VFR   VFR Marginale   IFR   IFR Intensivo   IFR Molto Intensivo
Visibilità : 
Base nubi : 
>= 8 km
>= 3000ft
5 / 8 km
1000 / 3000 ft
1500m / 5 km
500 / 1000 ft
800 / 1500m
200 / 500 ft
< 800m
< 200 ft
Simboli :   Temporali  Nebbia  Neve Forte  Precipitazioni Forti  Vento > 20 kt
SIGMETs :   Varie  Temporali  Ghiacco  Turbolenza  Onda orograficha  Ceneri Vulcaniche






- Altitudine del aeroporto : 170 ft
- Codice IATA : KRP


EKKA - Karup

ULTIMO METAR :
  • 301320Z AUTO 19012KT 150V210 9999 -RA BKN014/// BKN052/// 04/01 Q1014 TEMPO 6000 -RA BKN012

METARs OBSOLETI :
  • 301311Z AUTO 18011KT 150V210 9999 BKN013/// BKN053/// 04/02 Q1014 TEMPO 6000 -RA BKN012
  • 301250Z AUTO 19009KT 9999 SCT041/// BKN052/// 04/02 Q1015 TEMPO 6000 -RA BKN012
  • 301220Z AUTO 18009KT 9999 BKN057/// 04/02 Q1015 TEMPO 6000 -RA BKN012
  • 301150Z AUTO 18010KT 150V210 9999 BKN017/// BKN058/// 04/02 Q1016 TEMPO 6000 -RA BKN012
  • 301120Z AUTO 17008KT 140V200 9999 BKN016/// 03/01 Q1017 TEMPO 6000 -RA BKN012
  • 301050Z AUTO 17008KT 9999 BKN019/// 02/01 Q1018 TEMPO 6000 -PLRA BKN012

TAF TAF EKKA
Valido dal 30 a 12 ore il 01 a 12 ore UTC


301119Z 3012/0112 19007KT 9999 FEW008 BKN020
TEMPO 3012/3013 4000 -DZ BR BKN006
BECMG 3013/3016 18013KT 5000 -RA BKN008
TEMPO 3016/3021 2500 RADZ BR BKN004
BECMG 3019/3021 16006KT
TEMPO 3021/0109 1200 BCFG BR BKN002



MetMap, La meteo Aeronautica in un colpo d'occhio ! - Copyright ORBIFLY Dicembre 2007 - Disclaimer

ORBIFLY MET'MAP TEAM :

Programmazione e sviluppo : Alexandra Zaïnal
Concezione : Baudouin d'Aumeries
Aiuto per la programmazione : Marc-Olivier Méhu
Supporto tecnico e logistico : Manuel Goepfert
Aiuto per la traduzione : Arnaldo La Scala

Contatto : metmap@orbifly.com




FONTI E CREDITI :

   NOAA